createdAt,value
2023-03-06T00:04:43.949Z,988.59
2023-03-06T00:09:48.094Z,988.57
2023-03-06T00:14:52.266Z,988.52
2023-03-06T00:19:56.451Z,988.47
2023-03-06T00:30:04.725Z,988.34
2023-03-06T00:35:08.936Z,988.26
2023-03-06T00:40:13.081Z,988.20
2023-03-06T00:45:17.227Z,988.05
2023-03-06T00:50:21.433Z,987.93
2023-03-06T00:55:25.576Z,987.87
2023-03-06T01:00:29.706Z,987.83
2023-03-06T01:10:38.060Z,987.66
2023-03-06T01:15:40.412Z,987.64
2023-03-06T01:20:51.507Z,987.70
2023-03-06T01:26:02.693Z,987.62
2023-03-06T01:31:13.849Z,987.48
2023-03-06T01:36:25.008Z,987.46
2023-03-06T01:41:36.186Z,987.57
2023-03-06T01:46:45.460Z,987.57
2023-03-06T01:51:49.668Z,987.58
2023-03-06T01:56:51.930Z,987.59
2023-03-06T02:01:56.140Z,987.55
2023-03-06T02:07:00.281Z,987.55
2023-03-06T02:12:04.415Z,987.47
2023-03-06T02:17:08.604Z,987.50
2023-03-06T02:22:12.754Z,987.37
2023-03-06T02:27:16.885Z,987.36
2023-03-06T02:32:21.114Z,987.36
2023-03-06T02:37:25.245Z,987.33
2023-03-06T02:42:29.409Z,987.27
2023-03-06T02:47:33.561Z,987.21
2023-03-06T02:52:37.698Z,987.13
2023-03-06T02:57:41.882Z,987.11
2023-03-06T03:02:46.034Z,987.06
2023-03-06T03:07:50.224Z,987.04
2023-03-06T03:12:54.340Z,987.04
2023-03-06T03:17:58.524Z,986.96
2023-03-06T03:23:02.719Z,986.98
2023-03-06T03:28:06.892Z,986.96
2023-03-06T03:33:11.029Z,986.93
2023-03-06T03:38:15.232Z,986.82
2023-03-06T03:43:17.450Z,986.90
2023-03-06T03:48:21.651Z,986.78
2023-03-06T03:53:23.900Z,986.76
2023-03-06T03:58:28.091Z,986.71
2023-03-06T04:03:32.253Z,986.63
2023-03-06T04:08:36.404Z,986.72
2023-03-06T04:13:40.584Z,986.70
2023-03-06T04:18:44.727Z,986.78
2023-03-06T04:23:48.922Z,986.66
2023-03-06T04:33:57.282Z,986.69
2023-03-06T04:39:01.485Z,986.68
2023-03-06T04:44:05.601Z,986.68
2023-03-06T04:49:09.745Z,986.76
2023-03-06T04:54:13.905Z,986.68
2023-03-06T04:59:18.050Z,986.74
2023-03-06T05:04:22.229Z,986.84
2023-03-06T05:09:26.422Z,986.93
2023-03-06T05:14:30.568Z,987.02
2023-03-06T05:19:34.812Z,987.03
2023-03-06T05:24:38.882Z,987.10
2023-03-06T05:29:43.066Z,987.23
2023-03-06T05:34:47.234Z,987.21
2023-03-06T05:39:51.366Z,987.25
2023-03-06T05:44:53.667Z,987.33
2023-03-06T05:49:57.841Z,987.22
2023-03-06T05:55:00.114Z,987.22
2023-03-06T06:00:04.278Z,987.16
2023-03-06T06:05:08.445Z,987.15
2023-03-06T06:10:12.610Z,987.17
2023-03-06T06:15:16.724Z,987.09
2023-03-06T06:20:20.918Z,987.03
2023-03-06T06:25:25.073Z,986.96
2023-03-06T06:30:29.341Z,986.97
2023-03-06T06:35:33.458Z,986.98
2023-03-06T06:40:37.564Z,986.83
2023-03-06T06:45:41.797Z,986.79
2023-03-06T06:50:45.898Z,986.78
2023-03-06T06:55:50.081Z,986.70
2023-03-06T07:00:54.486Z,986.67
2023-03-06T07:05:58.416Z,986.80
2023-03-06T07:11:02.591Z,986.73
2023-03-06T07:16:06.906Z,986.76
2023-03-06T07:21:10.915Z,986.91
2023-03-06T07:26:15.051Z,986.97
2023-03-06T07:31:19.284Z,986.98
2023-03-06T07:36:23.394Z,987.19
2023-03-06T07:41:25.666Z,987.19
2023-03-06T07:46:29.936Z,987.24
2023-03-06T07:51:34.002Z,987.35
2023-03-06T07:56:38.152Z,987.54
2023-03-06T08:01:40.462Z,987.63
2023-03-06T08:06:44.598Z,987.77
2023-03-06T08:11:48.775Z,987.86
2023-03-06T08:16:52.931Z,988.00
2023-03-06T08:21:57.116Z,988.04
2023-03-06T08:27:01.246Z,988.14
2023-03-06T08:32:05.486Z,988.14
2023-03-06T08:37:09.637Z,988.27
2023-03-06T08:42:13.764Z,988.34
2023-03-06T08:47:17.929Z,988.40
2023-03-06T08:52:22.086Z,988.42
2023-03-06T08:57:26.236Z,988.60
2023-03-06T09:02:30.439Z,988.83
2023-03-06T09:07:34.600Z,988.92
2023-03-06T09:12:49.868Z,988.84
2023-03-06T09:17:43.019Z,988.80
2023-03-06T09:22:47.080Z,988.51
2023-03-06T09:28:01.908Z,988.39
2023-03-06T09:32:55.405Z,988.13
2023-03-06T09:37:59.543Z,987.81
2023-03-06T09:43:03.802Z,987.56
2023-03-06T09:48:05.998Z,987.33
2023-03-06T09:53:10.151Z,987.19
2023-03-06T09:58:12.454Z,987.05
2023-03-06T10:03:16.728Z,986.92
2023-03-06T10:08:20.769Z,986.86
2023-03-06T10:13:24.949Z,986.75
2023-03-06T10:18:29.082Z,986.74
2023-03-06T10:23:33.252Z,986.71
2023-03-06T10:28:37.410Z,986.70
2023-03-06T10:33:41.599Z,986.82
2023-03-06T10:38:45.763Z,986.73
2023-03-06T10:43:49.939Z,986.79
2023-03-06T10:48:54.070Z,986.80
2023-03-06T10:53:58.225Z,986.79
2023-03-06T10:59:02.401Z,986.88
2023-03-06T11:04:06.574Z,986.86
2023-03-06T11:09:10.781Z,987.17
2023-03-06T11:14:15.063Z,987.72
2023-03-06T11:19:19.043Z,988.29
2023-03-06T11:24:23.248Z,988.55
2023-03-06T11:29:27.466Z,989.04
2023-03-06T11:34:31.568Z,989.40
2023-03-06T11:39:35.701Z,989.86
2023-03-06T11:44:37.984Z,990.28
2023-03-06T11:49:42.174Z,990.59
2023-03-06T11:54:46.300Z,990.87
2023-03-06T11:59:50.482Z,990.93
2023-03-06T12:04:54.704Z,990.88
2023-03-06T12:09:58.835Z,990.95
2023-03-06T12:15:02.954Z,991.55
2023-03-06T12:20:07.162Z,991.90
2023-03-06T12:25:11.311Z,992.51
2023-03-06T12:40:23.769Z,992.71
2023-03-06T12:45:27.961Z,992.32
2023-03-06T12:50:30.252Z,992.14
2023-03-06T12:55:41.453Z,991.93
2023-03-06T13:00:55.312Z,991.72
2023-03-06T13:06:03.757Z,991.66
2023-03-06T13:11:14.919Z,991.51
2023-03-06T13:16:26.106Z,991.87
2023-03-06T13:21:35.362Z,992.46
2023-03-06T13:26:39.530Z,992.45
2023-03-06T13:31:43.767Z,992.61
2023-03-06T13:36:47.828Z,992.60
2023-03-06T13:41:50.114Z,992.66
2023-03-06T13:46:54.283Z,992.76
2023-03-06T13:51:58.430Z,992.84
2023-03-06T13:57:02.589Z,992.97
2023-03-06T14:02:06.762Z,992.91
2023-03-06T14:07:10.902Z,992.91
2023-03-06T14:12:15.070Z,993.09
2023-03-06T14:17:19.264Z,993.08
2023-03-06T14:22:23.419Z,993.04
2023-03-06T14:27:27.590Z,992.98
2023-03-06T14:32:31.812Z,993.04
2023-03-06T14:37:35.904Z,993.12
2023-03-06T14:42:40.070Z,992.96
2023-03-06T14:47:44.267Z,992.73
2023-03-06T14:57:52.536Z,992.59
2023-03-06T15:02:56.762Z,992.46
2023-03-06T15:08:00.866Z,992.24
2023-03-06T15:13:05.024Z,992.19
2023-03-06T15:18:09.209Z,992.07
2023-03-06T15:23:13.348Z,991.83
2023-03-06T15:28:17.515Z,991.82
2023-03-06T15:33:19.791Z,991.61
2023-03-06T15:38:23.958Z,991.44
2023-03-06T15:43:26.230Z,991.32
2023-03-06T15:48:30.424Z,991.18
2023-03-06T15:53:34.624Z,990.88
2023-03-06T15:58:38.744Z,990.67
2023-03-06T16:03:42.869Z,990.54
2023-03-06T16:08:47.082Z,990.56
2023-03-06T16:13:51.231Z,990.44
2023-03-06T16:18:55.370Z,990.47
2023-03-06T16:23:59.641Z,990.37
2023-03-06T16:29:03.719Z,990.38
2023-03-06T16:34:07.840Z,990.19
2023-03-06T16:39:12.091Z,990.05
2023-03-06T16:44:16.269Z,989.98
2023-03-06T16:49:18.557Z,989.96
2023-03-06T16:54:22.652Z,989.86
2023-03-06T16:59:26.769Z,989.82
2023-03-06T17:04:30.963Z,989.71
2023-03-06T17:09:35.147Z,989.62
2023-03-06T17:14:39.261Z,989.56
2023-03-06T17:19:43.413Z,989.34
2023-03-06T17:24:47.584Z,989.14
2023-03-06T17:29:49.890Z,989.03
2023-03-06T17:34:54.030Z,988.84
2023-03-06T17:39:56.368Z,988.71
2023-03-06T17:45:00.499Z,988.76
2023-03-06T17:50:04.653Z,988.75
2023-03-06T17:55:08.837Z,988.82
2023-03-06T18:00:12.946Z,988.94
2023-03-06T18:05:17.258Z,989.04
2023-03-06T18:10:21.283Z,989.01
2023-03-06T18:15:25.457Z,989.03
2023-03-06T18:20:29.622Z,989.01
2023-03-06T18:25:33.807Z,988.92
2023-03-06T18:30:37.976Z,988.71
2023-03-06T18:35:42.135Z,988.64
2023-03-06T18:40:46.320Z,988.45
2023-03-06T18:45:50.506Z,988.43
2023-03-06T18:50:54.693Z,988.22
2023-03-06T18:55:58.765Z,988.19
2023-03-06T19:01:02.999Z,988.12
2023-03-06T19:06:07.133Z,988.15
2023-03-06T19:11:11.296Z,988.17
2023-03-06T19:16:15.455Z,988.14
2023-03-06T19:21:19.638Z,988.21
2023-03-06T19:26:21.863Z,988.34
2023-03-06T19:31:26.084Z,988.24
2023-03-06T19:36:28.382Z,988.39
2023-03-06T19:41:32.492Z,988.38
2023-03-06T19:46:36.899Z,988.22
2023-03-06T19:51:40.788Z,988.13
2023-03-06T19:56:44.980Z,987.88
2023-03-06T20:01:49.185Z,987.82
2023-03-06T20:06:53.300Z,987.75
2023-03-06T20:11:57.502Z,987.43
2023-03-06T20:17:01.618Z,987.18
2023-03-06T20:22:05.798Z,986.96
2023-03-06T20:27:09.967Z,986.84
2023-03-06T20:32:14.140Z,986.78
2023-03-06T20:37:18.276Z,986.71
2023-03-06T20:42:22.597Z,986.75
2023-03-06T20:47:26.623Z,986.68
2023-03-06T20:52:30.752Z,986.50
2023-03-06T20:57:34.946Z,986.38
2023-03-06T21:02:39.066Z,986.20
2023-03-06T21:07:43.249Z,985.93
2023-03-06T21:12:47.393Z,985.65
2023-03-06T21:17:51.600Z,985.43
2023-03-06T21:22:53.856Z,985.08
2023-03-06T21:27:57.998Z,984.81
2023-03-06T21:33:02.184Z,984.49
2023-03-06T21:38:06.347Z,984.22
2023-03-06T21:43:10.558Z,983.96
2023-03-06T21:48:14.676Z,983.82
2023-03-06T21:53:18.869Z,983.63
2023-03-06T21:58:23.079Z,983.57
2023-03-06T22:03:27.175Z,983.26
2023-03-06T22:08:31.352Z,983.20
2023-03-06T22:13:35.522Z,983.05
2023-03-06T22:18:39.717Z,982.84
2023-03-06T22:23:43.858Z,982.67
2023-03-06T22:28:48.018Z,982.57
2023-03-06T22:33:52.157Z,982.27
2023-03-06T22:38:56.350Z,982.17
2023-03-06T22:44:00.486Z,981.88
2023-03-06T22:49:04.671Z,981.73
2023-03-06T22:54:08.842Z,981.69
2023-03-06T22:59:12.980Z,981.43
2023-03-06T23:04:17.164Z,981.38
2023-03-06T23:09:19.427Z,981.12
2023-03-06T23:14:23.596Z,981.03
2023-03-06T23:19:25.896Z,980.91
2023-03-06T23:24:30.079Z,980.83
2023-03-06T23:29:32.341Z,980.70
2023-03-06T23:34:36.488Z,980.53
2023-03-06T23:39:40.615Z,980.55
2023-03-06T23:44:44.826Z,980.34
2023-03-06T23:49:49.029Z,980.25
2023-03-06T23:54:53.125Z,980.21
2023-03-06T23:59:57.297Z,980.14
